createdAt,value
2023-02-06T00:01:14.056Z,3.43
2023-02-06T00:04:55.747Z,3.30
2023-02-06T00:08:37.486Z,3.60
2023-02-06T00:12:19.205Z,3.43
2023-02-06T00:16:01.135Z,3.57
2023-02-06T00:19:44.535Z,3.30
2023-02-06T00:23:26.304Z,3.13
2023-02-06T00:27:08.356Z,3.27
2023-02-06T00:30:50.157Z,2.87
2023-02-06T00:34:31.891Z,3.60
2023-02-06T00:38:13.633Z,2.77
2023-02-06T00:41:55.767Z,3.20
2023-02-06T00:45:37.641Z,3.20
2023-02-06T00:49:19.394Z,3.30
2023-02-06T00:53:01.190Z,2.80
2023-02-06T00:56:42.895Z,3.10
2023-02-06T01:00:24.660Z,2.83
2023-02-06T01:04:06.359Z,3.13
2023-02-06T01:07:48.075Z,3.20
2023-02-06T01:11:29.780Z,3.07
2023-02-06T01:15:13.335Z,2.77
2023-02-06T01:18:55.066Z,3.03
2023-02-06T01:22:37.388Z,2.60
2023-02-06T01:26:22.473Z,3.40
2023-02-06T01:30:06.194Z,2.63
2023-02-06T01:33:49.227Z,2.60
2023-02-06T01:37:30.953Z,2.57
2023-02-06T01:41:14.160Z,3.10
2023-02-06T01:45:36.566Z,2.50
2023-02-06T01:49:24.930Z,2.90
2023-02-06T01:53:07.333Z,2.97
2023-02-06T01:56:54.661Z,2.80
2023-02-06T02:00:36.601Z,2.80
2023-02-06T02:04:22.702Z,2.73
2023-02-06T02:08:20.181Z,3.17
2023-02-06T02:12:02.052Z,2.80
2023-02-06T02:16:02.734Z,2.90
2023-02-06T02:20:05.987Z,2.53
2023-02-06T02:24:00.011Z,2.53
2023-02-06T02:27:57.849Z,2.63
2023-02-06T02:31:57.409Z,2.63
2023-02-06T02:35:57.306Z,2.77
2023-02-06T02:39:47.284Z,2.38
2023-02-06T02:43:42.422Z,2.40
2023-02-06T02:47:31.998Z,2.90
2023-02-06T02:51:14.334Z,2.43
2023-02-06T02:54:56.063Z,2.53
2023-02-06T02:58:37.969Z,2.57
2023-02-06T03:02:24.856Z,3.03
2023-02-06T03:06:31.545Z,2.73
2023-02-06T03:10:37.466Z,2.70
2023-02-06T03:14:29.033Z,2.70
2023-02-06T03:18:16.582Z,2.20
2023-02-06T03:21:58.831Z,2.73
2023-02-06T03:25:44.339Z,2.50
2023-02-06T03:29:27.989Z,2.43
2023-02-06T03:33:12.620Z,2.33
2023-02-06T03:36:54.891Z,2.17
2023-02-06T03:40:39.402Z,2.73
2023-02-06T03:44:26.721Z,2.13
2023-02-06T03:48:13.878Z,1.80
2023-02-06T03:52:00.876Z,2.07
2023-02-06T03:55:44.981Z,2.07
2023-02-06T03:59:27.080Z,2.20
2023-02-06T04:03:10.996Z,1.93
2023-02-06T04:06:52.684Z,2.40
2023-02-06T04:10:34.462Z,1.60
2023-02-06T04:14:16.157Z,1.80
2023-02-06T04:18:01.032Z,1.73
2023-02-06T04:21:43.857Z,2.03
2023-02-06T04:25:26.127Z,1.67
2023-02-06T04:29:07.866Z,1.73
2023-02-06T04:32:49.575Z,1.50
2023-02-06T04:36:31.279Z,1.70
2023-02-06T04:40:13.052Z,1.50
2023-02-06T04:43:54.820Z,1.67
2023-02-06T04:47:36.640Z,1.70
2023-02-06T04:51:18.427Z,1.70
2023-02-06T04:55:00.153Z,1.70
2023-02-06T04:58:41.963Z,1.50
2023-02-06T05:02:23.688Z,1.60
2023-02-06T05:06:05.640Z,1.57
2023-02-06T05:09:47.418Z,1.20
2023-02-06T05:13:29.162Z,1.67
2023-02-06T05:17:10.913Z,1.60
2023-02-06T05:20:52.619Z,1.73
2023-02-06T05:24:34.328Z,1.40
2023-02-06T05:28:16.036Z,1.53
2023-02-06T05:31:58.242Z,1.30
2023-02-06T05:35:40.371Z,1.43
2023-02-06T05:39:22.271Z,1.67
2023-02-06T05:43:04.001Z,1.30
2023-02-06T05:46:48.345Z,1.20
2023-02-06T05:50:30.103Z,1.37
2023-02-06T05:54:11.896Z,1.50
2023-02-06T05:57:53.693Z,1.37
2023-02-06T06:01:35.532Z,1.30
2023-02-06T06:05:17.293Z,1.53
2023-02-06T06:09:01.260Z,1.17
2023-02-06T06:12:42.977Z,1.53
2023-02-06T06:16:24.874Z,1.07
2023-02-06T06:20:06.858Z,1.27
2023-02-06T06:23:48.660Z,1.47
2023-02-06T06:27:30.438Z,1.87
2023-02-06T06:31:12.408Z,1.27
2023-02-06T06:34:54.166Z,1.43
2023-02-06T06:38:36.056Z,1.60
2023-02-06T06:42:17.814Z,1.77
2023-02-06T06:46:01.220Z,1.40
2023-02-06T06:49:42.919Z,1.60
2023-02-06T06:53:24.671Z,1.70
2023-02-06T06:57:06.469Z,1.13
2023-02-06T07:00:48.283Z,1.70
2023-02-06T07:04:31.222Z,1.60
2023-02-06T07:08:13.055Z,1.40
2023-02-06T07:11:54.749Z,1.63
2023-02-06T07:15:36.839Z,1.50
2023-02-06T07:19:18.840Z,1.50
2023-02-06T07:23:01.890Z,1.50
2023-02-06T07:26:43.610Z,1.50
2023-02-06T07:30:25.389Z,1.80
2023-02-06T07:34:07.107Z,1.53
2023-02-06T07:37:48.829Z,1.37
2023-02-06T07:41:30.635Z,2.20
2023-02-06T07:45:12.489Z,1.60
2023-02-06T07:48:54.199Z,2.00
2023-02-06T07:52:35.987Z,1.77
2023-02-06T07:56:19.653Z,1.90
2023-02-06T08:00:01.431Z,1.80
2023-02-06T08:03:43.306Z,1.83
2023-02-06T08:07:25.036Z,1.90
2023-02-06T08:11:08.799Z,2.13
2023-02-06T08:14:50.571Z,2.03
2023-02-06T08:18:32.876Z,1.97
2023-02-06T08:22:14.770Z,2.00
2023-02-06T08:26:08.128Z,1.77
2023-02-06T08:29:51.667Z,1.67
2023-02-06T08:33:33.400Z,2.00
2023-02-06T08:37:15.370Z,2.00
2023-02-06T08:40:57.214Z,1.67
2023-02-06T08:44:38.988Z,1.40
2023-02-06T08:48:20.715Z,1.70
2023-02-06T08:52:02.459Z,1.63
2023-02-06T08:55:44.190Z,1.70
2023-02-06T08:59:25.937Z,1.70
2023-02-06T09:03:07.696Z,1.80
2023-02-06T09:06:49.655Z,1.70
2023-02-06T09:10:31.434Z,2.20
2023-02-06T09:14:15.713Z,1.87
2023-02-06T09:17:57.442Z,1.87
2023-02-06T09:21:39.724Z,1.57
2023-02-06T09:25:21.436Z,2.07
2023-02-06T09:29:07.958Z,1.77
2023-02-06T09:32:49.683Z,1.80
2023-02-06T09:36:33.722Z,1.83
2023-02-06T09:40:19.764Z,1.87
2023-02-06T09:44:05.183Z,1.67
2023-02-06T09:47:54.102Z,1.60
2023-02-06T09:51:50.553Z,1.50
2023-02-06T09:55:52.119Z,1.23
2023-02-06T09:59:45.002Z,1.50
2023-02-06T10:03:37.432Z,1.40
2023-02-06T10:07:39.419Z,2.00
2023-02-06T10:11:26.280Z,1.87
2023-02-06T10:15:16.373Z,1.57
2023-02-06T10:19:04.202Z,1.63
2023-02-06T10:22:55.300Z,1.60
2023-02-06T10:26:41.151Z,1.93
2023-02-06T10:30:36.410Z,1.83
2023-02-06T10:34:27.315Z,1.60
2023-02-06T10:38:27.683Z,1.33
2023-02-06T10:42:20.550Z,1.52
2023-02-06T10:46:32.905Z,1.33
2023-02-06T10:50:31.354Z,1.80
2023-02-06T10:54:22.901Z,1.50
2023-02-06T10:58:15.321Z,1.57
2023-02-06T11:02:21.625Z,1.70
2023-02-06T11:06:03.387Z,1.27
2023-02-06T11:09:45.292Z,1.67
2023-02-06T11:13:31.103Z,1.20
2023-02-06T11:17:15.264Z,1.73
2023-02-06T11:20:57.675Z,1.40
2023-02-06T11:24:58.793Z,1.60
2023-02-06T11:28:57.060Z,1.60
2023-02-06T11:32:43.891Z,1.60
2023-02-06T11:36:32.182Z,1.63
2023-02-06T11:40:20.187Z,1.43
2023-02-06T11:44:06.476Z,2.00
2023-02-06T11:47:48.381Z,1.53
2023-02-06T11:51:53.805Z,1.70
2023-02-06T11:55:37.884Z,1.70
2023-02-06T11:59:23.209Z,1.50
2023-02-06T12:03:06.017Z,1.53
2023-02-06T12:06:47.829Z,1.70
2023-02-06T12:10:32.888Z,2.00
2023-02-06T12:14:25.783Z,1.50
2023-02-06T12:18:16.602Z,1.60
2023-02-06T12:22:04.976Z,1.57
2023-02-06T12:25:51.385Z,1.97
2023-02-06T12:29:40.210Z,1.60
2023-02-06T12:33:47.726Z,1.40
2023-02-06T12:37:39.781Z,1.27
2023-02-06T12:41:40.265Z,1.07
2023-02-06T12:45:22.095Z,1.50
2023-02-06T12:49:20.816Z,1.50
2023-02-06T12:53:22.774Z,1.40
2023-02-06T12:57:17.390Z,1.40
2023-02-06T13:01:28.847Z,1.27
2023-02-06T13:05:32.787Z,1.37
2023-02-06T13:09:26.069Z,1.07
2023-02-06T13:13:38.689Z,2.93
2023-02-06T13:17:32.943Z,1.40
2023-02-06T13:21:19.119Z,1.33
2023-02-06T13:25:02.312Z,1.47
2023-02-06T13:28:56.097Z,1.50
2023-02-06T13:32:42.077Z,1.63
2023-02-06T13:36:49.999Z,1.60
2023-02-06T13:40:32.243Z,1.60
2023-02-06T13:44:24.548Z,1.30
2023-02-06T13:48:15.322Z,1.30
2023-02-06T13:52:09.141Z,1.60
2023-02-06T13:56:04.517Z,1.40
2023-02-06T14:00:01.937Z,1.27
2023-02-06T14:03:47.204Z,1.27
2023-02-06T14:07:54.216Z,1.23
2023-02-06T14:12:22.732Z,1.27
2023-02-06T14:16:26.099Z,1.30
2023-02-06T14:20:22.874Z,1.33
2023-02-06T14:24:35.608Z,1.00
2023-02-06T14:28:25.993Z,1.27
2023-02-06T14:36:27.801Z,1.37
2023-02-06T14:40:25.564Z,1.40
2023-02-06T14:44:14.045Z,1.17
2023-02-06T14:48:00.360Z,1.25
2023-02-06T14:51:42.301Z,1.37
2023-02-06T14:55:31.126Z,1.17
2023-02-06T14:59:12.826Z,1.43
2023-02-06T15:03:17.761Z,1.17
2023-02-06T15:07:04.878Z,1.10
2023-02-06T15:10:47.441Z,0.87
2023-02-06T15:14:31.816Z,1.13
2023-02-06T15:18:18.197Z,1.27
2023-02-06T15:22:11.358Z,2.00
2023-02-06T15:26:05.554Z,1.03
2023-02-06T15:29:50.749Z,1.40
2023-02-06T15:33:34.651Z,1.20
2023-02-06T15:37:36.079Z,1.10
2023-02-06T15:41:18.202Z,1.00
2023-02-06T15:45:00.818Z,1.20
2023-02-06T15:48:53.861Z,1.20
2023-02-06T15:52:47.309Z,1.13
2023-02-06T15:56:32.684Z,1.30
2023-02-06T16:00:28.176Z,1.40
2023-02-06T16:04:18.515Z,1.23
2023-02-06T16:11:46.294Z,1.10
2023-02-06T16:15:32.415Z,1.10
2023-02-06T16:19:53.972Z,1.30
2023-02-06T16:23:52.115Z,1.20
2023-02-06T16:27:33.900Z,0.90
2023-02-06T16:31:15.916Z,1.13
2023-02-06T16:34:57.867Z,0.87
2023-02-06T16:38:40.515Z,1.37
2023-02-06T16:42:25.785Z,0.90
2023-02-06T16:46:07.520Z,1.40
2023-02-06T16:49:49.660Z,0.90
2023-02-06T16:53:31.799Z,1.17
2023-02-06T16:57:30.910Z,1.30
2023-02-06T17:01:24.625Z,1.00
2023-02-06T17:05:06.697Z,0.80
2023-02-06T17:08:49.326Z,1.00
2023-02-06T17:12:31.104Z,1.23
2023-02-06T17:16:19.671Z,1.27
2023-02-06T17:20:01.376Z,1.83
2023-02-06T17:23:43.506Z,1.47
2023-02-06T17:27:25.696Z,1.40
2023-02-06T17:31:08.055Z,1.50
2023-02-06T17:34:51.454Z,1.53
2023-02-06T17:38:33.371Z,1.70
2023-02-06T17:42:15.412Z,1.63
2023-02-06T17:45:57.194Z,2.13
2023-02-06T17:49:39.002Z,2.23
2023-02-06T17:53:20.960Z,2.33
2023-02-06T17:57:03.192Z,2.33
2023-02-06T18:00:49.252Z,3.20
2023-02-06T18:04:31.725Z,2.67
2023-02-06T18:08:13.500Z,2.90
2023-02-06T18:11:55.229Z,2.80
2023-02-06T18:15:36.941Z,3.10
2023-02-06T18:19:23.855Z,3.10
2023-02-06T18:23:05.567Z,3.47
2023-02-06T18:26:47.341Z,2.30
2023-02-06T18:30:29.152Z,2.93
2023-02-06T18:34:11.214Z,2.57
2023-02-06T18:37:53.272Z,2.57
2023-02-06T18:41:53.782Z,2.80
2023-02-06T18:45:37.868Z,2.83
2023-02-06T18:49:19.677Z,2.43
2023-02-06T18:53:01.569Z,3.50
2023-02-06T18:56:45.396Z,2.30
2023-02-06T19:00:27.643Z,2.63
2023-02-06T19:04:09.407Z,2.70
2023-02-06T19:07:52.711Z,2.80
2023-02-06T19:11:35.743Z,2.40
2023-02-06T19:15:17.679Z,2.13
2023-02-06T19:18:59.617Z,2.33
2023-02-06T19:22:41.343Z,2.50
2023-02-06T19:26:23.607Z,2.57
2023-02-06T19:30:07.710Z,2.47
2023-02-06T19:33:58.517Z,2.40
2023-02-06T19:37:40.330Z,2.53
2023-02-06T19:41:24.474Z,2.80
2023-02-06T19:45:06.932Z,2.30
2023-02-06T19:48:50.093Z,2.40
2023-02-06T19:52:31.932Z,2.07
2023-02-06T19:56:30.904Z,3.00
2023-02-06T20:00:13.149Z,2.70
2023-02-06T20:03:55.853Z,2.90
2023-02-06T20:07:37.847Z,2.50
2023-02-06T20:11:21.739Z,3.03
2023-02-06T20:15:03.715Z,3.10
2023-02-06T20:18:45.837Z,2.70
2023-02-06T20:22:27.742Z,2.70
2023-02-06T20:26:09.484Z,2.73
2023-02-06T20:29:51.190Z,3.13
2023-02-06T20:33:35.047Z,2.80
2023-02-06T20:37:17.873Z,2.43
2023-02-06T20:40:59.585Z,3.20
2023-02-06T20:44:41.303Z,2.80
2023-02-06T20:48:23.408Z,2.87
2023-02-06T20:52:06.326Z,2.97
2023-02-06T20:55:48.059Z,2.63
2023-02-06T20:59:30.106Z,2.87
2023-02-06T21:03:12.573Z,3.10
2023-02-06T21:06:55.117Z,2.63
2023-02-06T21:10:37.148Z,2.73
2023-02-06T21:14:19.808Z,3.00
2023-02-06T21:18:01.649Z,2.40
2023-02-06T21:21:45.948Z,3.27
2023-02-06T21:25:28.044Z,3.03
2023-02-06T21:29:11.140Z,2.83
2023-02-06T21:32:55.066Z,2.87
2023-02-06T21:36:38.342Z,3.00
2023-02-06T21:40:21.041Z,2.67
2023-02-06T21:44:03.300Z,2.70
2023-02-06T21:47:45.099Z,3.00
2023-02-06T21:51:27.033Z,3.20
2023-02-06T21:55:08.939Z,2.90
2023-02-06T21:58:51.071Z,2.70
2023-02-06T22:02:32.836Z,3.10
2023-02-06T22:06:15.807Z,2.60
2023-02-06T22:09:58.050Z,3.50
2023-02-06T22:13:40.865Z,2.87
2023-02-06T22:17:22.709Z,2.90
2023-02-06T22:21:06.564Z,2.90
2023-02-06T22:24:51.784Z,2.90
2023-02-06T22:28:33.833Z,2.60
2023-02-06T22:32:15.585Z,2.93
2023-02-06T22:35:57.298Z,2.53
2023-02-06T22:39:39.048Z,2.63
2023-02-06T22:43:20.903Z,2.70
2023-02-06T22:47:02.664Z,2.60
2023-02-06T22:50:44.414Z,2.40
2023-02-06T22:54:26.136Z,2.70
2023-02-06T22:58:07.863Z,2.27
2023-02-06T23:01:54.941Z,2.50
2023-02-06T23:05:37.118Z,2.87
2023-02-06T23:09:24.402Z,3.00
2023-02-06T23:13:06.219Z,2.83
2023-02-06T23:16:48.426Z,2.53
2023-02-06T23:20:30.373Z,2.47
2023-02-06T23:24:13.195Z,2.93
2023-02-06T23:27:55.044Z,2.27
2023-02-06T23:31:37.446Z,2.93
2023-02-06T23:35:19.317Z,2.93
2023-02-06T23:39:02.085Z,2.53
2023-02-06T23:42:44.149Z,2.90
2023-02-06T23:46:27.671Z,3.00
2023-02-06T23:50:09.865Z,2.77
2023-02-06T23:53:51.982Z,2.80
2023-02-06T23:57:37.647Z,2.67
